createdAt,value
2019-02-04T00:00:03.176Z,88.15
2019-02-04T00:05:02.510Z,88.13
2019-02-04T00:10:02.938Z,88.14
2019-02-04T00:15:03.292Z,88.16
2019-02-04T00:20:02.692Z,88.2
2019-02-04T00:25:03.043Z,88.27
2019-02-04T00:30:02.464Z,88.33
2019-02-04T00:35:03.111Z,88.24
2019-02-04T00:40:02.529Z,88.17
2019-02-04T00:45:02.894Z,88.18
2019-02-04T00:50:03.352Z,88.19
2019-02-04T00:55:02.761Z,88.19
2019-02-04T01:00:03.176Z,88.18
2019-02-04T01:05:03.121Z,88.26
2019-02-04T01:10:02.518Z,88.3
2019-02-04T01:15:02.902Z,88.24
2019-02-04T01:20:03.317Z,88.16
2019-02-04T01:25:02.728Z,88.14
2019-02-04T01:30:03.325Z,88.15
2019-02-04T01:35:02.705Z,88.13
2019-02-04T01:40:03.142Z,88.14
2019-02-04T01:45:02.700Z,88.25
2019-02-04T01:50:03.097Z,88.22
2019-02-04T01:55:02.524Z,88.15
2019-02-04T02:00:02.962Z,88.12
2019-02-04T02:05:02.397Z,88.09
2019-02-04T02:10:03.240Z,88.1
2019-02-04T02:15:02.649Z,88.1
2019-02-04T02:20:02.989Z,88.18
2019-02-04T02:25:02.423Z,88.23
2019-02-04T02:30:02.961Z,88.18
2019-02-04T02:35:02.390Z,88.12
2019-02-04T02:40:02.865Z,88.11
2019-02-04T02:45:03.273Z,88.12
2019-02-04T02:50:02.731Z,88.12
2019-02-04T02:55:03.140Z,88.16
2019-02-04T03:00:02.572Z,88.22
2019-02-04T03:05:03.317Z,88.22
2019-02-04T03:10:02.697Z,88.15
2019-02-04T03:15:03.061Z,88.12
2019-02-04T03:20:02.478Z,88.13
2019-02-04T03:25:02.820Z,88.14
2019-02-04T03:30:04.195Z,88.15
2019-02-04T03:35:02.608Z,88.21
2019-02-04T03:40:03.032Z,88.28
2019-02-04T03:45:06.253Z,88.17
2019-02-04T03:50:02.689Z,88.09
2019-02-04T03:55:03.174Z,88.09
2019-02-04T04:00:02.852Z,88.08
2019-02-04T04:05:03.224Z,88.06
2019-02-04T04:10:02.724Z,88.09
2019-02-04T04:15:03.170Z,88.17
2019-02-04T04:20:02.570Z,88.15
2019-02-04T04:25:02.924Z,88.05
2019-02-04T04:30:03.379Z,88.01
2019-02-04T04:35:02.795Z,88.0
2019-02-04T04:40:02.627Z,88.01
2019-02-04T04:45:02.165Z,88.03
2019-02-04T04:50:02.576Z,88.05
2019-02-04T04:55:03.012Z,88.14
2019-02-04T05:00:02.441Z,88.1
2019-02-04T05:05:02.871Z,88.02
2019-02-04T05:10:03.324Z,88.01
2019-02-04T05:15:02.841Z,88.03
2019-02-04T05:20:03.233Z,88.04
2019-02-04T05:25:02.654Z,88.1
2019-02-04T05:30:03.047Z,88.18
2019-02-04T05:35:02.502Z,88.18
2019-02-04T05:40:03.052Z,88.1
2019-02-04T05:45:02.471Z,88.04
2019-02-04T05:50:02.904Z,88.01
2019-02-04T05:55:03.320Z,88.06
2019-02-04T06:00:02.643Z,88.09
2019-02-04T06:05:03.077Z,88.16
2019-02-04T06:10:02.598Z,88.26
2019-02-04T06:15:02.988Z,88.29
2019-02-04T06:20:03.163Z,88.13
2019-02-04T06:25:02.610Z,88.07
2019-02-04T06:30:03.251Z,88.09
2019-02-04T06:35:02.661Z,88.17
2019-02-04T06:40:03.109Z,88.21
2019-02-04T06:45:02.534Z,88.33
2019-02-04T06:50:02.985Z,88.38
2019-02-04T06:55:02.400Z,88.31
2019-02-04T07:00:02.750Z,88.27
2019-02-04T07:05:03.216Z,88.25
2019-02-04T07:10:02.730Z,88.28
2019-02-04T07:15:03.141Z,88.32
2019-02-04T07:20:02.582Z,88.34
2019-02-04T07:25:02.427Z,88.45
2019-02-04T07:30:02.906Z,88.43
2019-02-04T07:35:03.275Z,88.36
2019-02-04T07:40:02.998Z,88.33
2019-02-04T07:45:02.421Z,88.37
2019-02-04T07:50:02.869Z,88.4
2019-02-04T07:55:03.311Z,88.44
2019-02-04T08:00:02.641Z,88.5
2019-02-04T08:05:02.997Z,88.57
2019-02-04T08:10:02.485Z,88.53
2019-02-04T08:15:02.828Z,88.44
2019-02-04T08:20:03.310Z,88.45
2019-02-04T08:25:02.681Z,88.48
2019-02-04T08:30:03.165Z,88.5
2019-02-04T08:35:02.857Z,88.57
2019-02-04T08:40:03.412Z,88.64
2019-02-04T08:45:02.816Z,88.73
2019-02-04T08:50:02.442Z,88.72
2019-02-04T08:55:02.894Z,88.63
2019-02-04T09:00:03.341Z,88.63
2019-02-04T09:05:03.055Z,88.67
2019-02-04T09:10:02.481Z,88.7
2019-02-04T09:15:02.941Z,88.75
2019-02-04T09:20:09.768Z,88.79
2019-02-04T09:25:02.891Z,88.88
2019-02-04T09:30:03.333Z,88.92
2019-02-04T09:35:02.785Z,88.84
2019-02-04T09:40:03.304Z,88.8
2019-02-04T09:45:02.714Z,88.78
2019-02-04T09:50:03.221Z,88.81
2019-02-04T09:55:02.645Z,88.85
2019-02-04T10:00:03.028Z,88.89
2019-02-04T10:05:02.445Z,88.94
2019-02-04T10:10:02.089Z,88.99
2019-02-04T10:15:02.538Z,89.06
2019-02-04T10:20:02.973Z,89.02
2019-02-04T10:25:02.401Z,88.98
2019-02-04T10:30:03.187Z,88.99
2019-02-04T10:35:02.706Z,89.01
2019-02-04T10:40:03.212Z,89.04
2019-02-04T10:45:02.576Z,89.07
2019-02-04T10:50:02.996Z,89.1
2019-02-04T10:55:02.425Z,89.13
2019-02-04T11:00:03.099Z,89.24
2019-02-04T11:05:02.508Z,89.24
2019-02-04T11:10:02.993Z,89.18
2019-02-04T11:15:02.444Z,89.18
2019-02-04T11:20:02.922Z,89.17
2019-02-04T11:25:02.726Z,89.23
2019-02-04T11:30:03.302Z,89.27
2019-02-04T11:35:02.738Z,89.3
2019-02-04T11:40:03.320Z,89.34
2019-02-04T11:45:02.823Z,89.37
2019-02-04T11:50:03.255Z,89.39
2019-02-04T11:55:02.665Z,89.44
2019-02-04T12:00:03.010Z,89.51
2019-02-04T12:05:02.436Z,89.49
2019-02-04T12:10:02.931Z,89.43
2019-02-04T12:15:03.313Z,89.41
2019-02-04T12:20:02.735Z,89.43
2019-02-04T12:25:03.186Z,89.45
2019-02-04T12:30:02.535Z,89.45
2019-02-04T12:35:03.389Z,89.49
2019-02-04T12:40:02.901Z,89.52
2019-02-04T12:45:03.316Z,89.57
2019-02-04T12:50:02.731Z,89.56
2019-02-04T12:55:03.076Z,89.61
2019-02-04T13:00:02.484Z,89.61
2019-02-04T13:05:02.941Z,89.61
2019-02-04T13:10:02.452Z,89.65
2019-02-04T13:15:02.925Z,89.71
2019-02-04T13:20:03.353Z,89.68
2019-02-04T13:25:03.136Z,89.58
2019-02-04T13:30:02.163Z,89.53
2019-02-04T13:35:02.636Z,89.27
2019-02-04T13:40:03.067Z,89.05
2019-02-04T13:45:02.697Z,89.08
2019-02-04T13:50:03.006Z,89.16
2019-02-04T13:55:02.487Z,89.23
2019-02-04T14:00:02.989Z,89.27
2019-02-04T14:05:02.416Z,89.25
2019-02-04T14:10:02.934Z,89.27
2019-02-04T14:15:03.302Z,89.21
2019-02-04T14:20:02.715Z,89.2
2019-02-04T14:25:02.460Z,89.16
2019-02-04T14:30:02.885Z,89.13
2019-02-04T14:35:03.340Z,89.11
2019-02-04T14:40:17.783Z,89.14
2019-02-04T14:45:03.198Z,89.29
2019-02-04T14:50:02.633Z,89.22
2019-02-04T14:55:03.053Z,89.16
2019-02-04T15:00:02.470Z,89.11
2019-02-04T15:05:02.432Z,89.06
2019-02-04T15:10:02.875Z,89.03
2019-02-04T15:15:03.330Z,88.94
2019-02-04T15:20:02.752Z,88.9
2019-02-04T15:25:03.164Z,88.88
2019-02-04T15:30:02.595Z,88.84
2019-02-04T15:35:05.027Z,88.85
2019-02-04T15:40:01.795Z,88.85
2019-02-04T15:45:03.296Z,88.87
2019-02-04T15:50:02.706Z,88.93
2019-02-04T15:55:03.089Z,88.9
2019-02-04T16:00:02.466Z,88.9
2019-02-04T16:05:02.929Z,88.98
2019-02-04T16:10:02.488Z,88.96
2019-02-04T16:15:02.876Z,88.85
2019-02-04T16:20:03.328Z,88.76
2019-02-04T16:25:03.164Z,88.74
2019-02-04T16:30:02.571Z,88.74
2019-02-04T16:35:03.045Z,88.71
2019-02-04T16:40:02.792Z,88.73
2019-02-04T16:45:03.195Z,88.72
2019-02-04T16:50:02.596Z,88.71
2019-02-04T16:55:02.147Z,88.73
2019-02-04T17:00:02.566Z,88.73
2019-02-04T17:05:03.015Z,88.7
2019-02-04T17:10:02.430Z,88.71
2019-02-04T17:15:02.870Z,88.8
2019-02-04T17:20:03.309Z,88.87
2019-02-04T17:25:02.753Z,88.85
2019-02-04T17:30:03.189Z,88.83
2019-02-04T17:35:02.530Z,88.86
2019-02-04T17:40:02.971Z,88.84
2019-02-04T17:45:02.405Z,88.8
2019-02-04T17:50:03.113Z,88.77
2019-02-04T17:55:02.524Z,88.72
2019-02-04T18:00:02.966Z,88.73
2019-02-04T18:05:02.726Z,88.73
2019-02-04T18:10:03.141Z,88.73
2019-02-04T18:15:02.553Z,88.8
2019-02-04T18:20:03.008Z,88.86
2019-02-04T18:25:02.441Z,88.87
2019-02-04T18:30:02.866Z,88.83
2019-02-04T18:35:03.342Z,88.78
2019-02-04T18:40:02.867Z,88.63
2019-02-04T18:45:03.282Z,88.58
2019-02-04T18:50:02.731Z,88.56
2019-02-04T18:55:02.548Z,88.55
2019-02-04T19:00:02.969Z,88.58
2019-02-04T19:05:02.337Z,88.61
2019-02-04T19:10:02.827Z,88.62
2019-02-04T19:15:03.165Z,88.66
2019-02-04T19:20:02.596Z,88.67
2019-02-04T19:25:03.051Z,88.81
2019-02-04T19:30:02.463Z,88.79
2019-02-04T19:35:02.828Z,88.72
2019-02-04T19:40:02.568Z,88.68
2019-02-04T19:45:03.172Z,88.67
2019-02-04T19:50:02.607Z,88.63
2019-02-04T19:55:02.983Z,88.62
2019-02-04T20:00:02.364Z,88.58
2019-02-04T20:05:02.807Z,88.58
2019-02-04T20:10:03.226Z,88.61
2019-02-04T20:15:01.858Z,88.63
2019-02-04T20:20:03.312Z,88.64
2019-02-04T20:25:02.711Z,88.67
2019-02-04T20:30:03.053Z,88.71
2019-02-04T20:35:02.498Z,88.79
2019-02-04T20:40:02.923Z,88.73
2019-02-04T20:45:03.373Z,88.63
2019-02-04T20:50:02.779Z,88.6
2019-02-04T20:55:03.129Z,88.54
2019-02-04T21:00:02.543Z,88.55
2019-02-04T21:05:02.988Z,88.54
2019-02-04T21:10:02.409Z,88.54
2019-02-04T21:15:02.892Z,88.56
2019-02-04T21:20:02.614Z,88.57
2019-02-04T21:25:03.022Z,88.65
2019-02-04T21:30:02.438Z,88.67
2019-02-04T21:35:02.894Z,88.76
2019-02-04T21:40:03.329Z,88.8
2019-02-04T21:45:02.845Z,88.77
2019-02-04T21:50:03.289Z,88.71
2019-02-04T21:55:11.259Z,88.7
2019-02-04T22:00:04.942Z,88.7
2019-02-04T22:05:02.483Z,88.7
2019-02-04T22:10:02.914Z,88.7
2019-02-04T22:15:02.669Z,88.73
2019-02-04T22:20:02.468Z,88.75
2019-02-04T22:25:03.280Z,88.81
2019-02-04T22:30:03.063Z,88.85
2019-02-04T22:35:02.778Z,88.96
2019-02-04T22:40:03.225Z,89.01
2019-02-04T22:45:02.656Z,88.93
2019-02-04T22:50:02.319Z,88.89
2019-02-04T22:55:02.887Z,88.9
2019-02-04T23:00:02.638Z,88.9
2019-02-04T23:05:03.094Z,88.89
2019-02-04T23:10:02.580Z,88.9
2019-02-04T23:15:02.945Z,88.93
2019-02-04T23:20:03.394Z,88.96
2019-02-04T23:25:02.798Z,89.02
2019-02-04T23:30:03.248Z,89.06
2019-02-04T23:35:02.669Z,89.14
2019-02-04T23:40:03.113Z,89.19
2019-02-04T23:45:02.440Z,89.1
2019-02-04T23:50:02.793Z,89.07
2019-02-04T23:55:02.534Z,89.09
